sensor_id;sensor_type;location;lat;lon;timestamp;pressure;altitude;pressure_sealevel;temperature;humidity
73594;BME280;64760;53.404;23.498;2023-06-24T00:02:17;99591.47;;;19.05;80.90
73594;BME280;64760;53.404;23.498;2023-06-24T00:04:43;99589.50;;;19.01;82.21
73594;BME280;64760;53.404;23.498;2023-06-24T00:07:10;99587.84;;;19.00;82.02
73594;BME280;64760;53.404;23.498;2023-06-24T00:09:36;99593.19;;;18.90;82.53
73594;BME280;64760;53.404;23.498;2023-06-24T00:12:02;99600.00;;;18.92;82.55
73594;BME280;64760;53.404;23.498;2023-06-24T00:14:29;99605.44;;;18.92;82.68
73594;BME280;64760;53.404;23.498;2023-06-24T00:16:56;99598.16;;;18.98;83.38
73594;BME280;64760;53.404;23.498;2023-06-24T00:19:23;99598.63;;;18.90;84.09
73594;BME280;64760;53.404;23.498;2023-06-24T00:21:51;99589.03;;;18.82;84.77
73594;BME280;64760;53.404;23.498;2023-06-24T00:24:18;99582.00;;;18.86;84.68
73594;BME280;64760;53.404;23.498;2023-06-24T00:26:46;99593.44;;;18.88;84.78
73594;BME280;64760;53.404;23.498;2023-06-24T00:29:13;99590.19;;;18.91;85.14
73594;BME280;64760;53.404;23.498;2023-06-24T00:31:39;99580.97;;;18.92;84.84
73594;BME280;64760;53.404;23.498;2023-06-24T00:34:05;99575.47;;;18.87;85.36
73594;BME280;64760;53.404;23.498;2023-06-24T00:36:31;99576.56;;;18.86;84.95
73594;BME280;64760;53.404;23.498;2023-06-24T00:38:58;99583.38;;;18.89;85.82
73594;BME280;64760;53.404;23.498;2023-06-24T00:41:33;99581.25;;;18.91;85.53
73594;BME280;64760;53.404;23.498;2023-06-24T00:44:00;99588.50;;;18.85;85.73
73594;BME280;64760;53.404;23.498;2023-06-24T00:46:28;99594.56;;;18.92;85.56
73594;BME280;64760;53.404;23.498;2023-06-24T00:48:55;99589.41;;;18.91;86.12
73594;BME280;64760;53.404;23.498;2023-06-24T00:51:22;99600.56;;;18.94;85.45
73594;BME280;64760;53.404;23.498;2023-06-24T00:53:53;99596.72;;;18.90;86.23
73594;BME280;64760;53.404;23.498;2023-06-24T00:56:21;99595.84;;;18.85;86.89
73594;BME280;64760;53.404;23.498;2023-06-24T00:58:49;99595.59;;;18.86;86.75
73594;BME280;64760;53.404;23.498;2023-06-24T01:01:16;99601.63;;;18.93;86.22
73594;BME280;64760;53.404;23.498;2023-06-24T01:03:43;99605.88;;;18.84;86.89
73594;BME280;64760;53.404;23.498;2023-06-24T01:06:09;99606.06;;;18.77;86.96
73594;BME280;64760;53.404;23.498;2023-06-24T01:08:36;99604.72;;;18.80;87.20
73594;BME280;64760;53.404;23.498;2023-06-24T01:11:03;99597.66;;;18.79;87.35
73594;BME280;64760;53.404;23.498;2023-06-24T01:13:29;99602.72;;;18.70;87.56
73594;BME280;64760;53.404;23.498;2023-06-24T01:15:59;99603.78;;;18.69;87.96
73594;BME280;64760;53.404;23.498;2023-06-24T01:18:33;99602.34;;;18.62;87.97
73594;BME280;64760;53.404;23.498;2023-06-24T01:21:14;99603.47;;;18.66;88.17
73594;BME280;64760;53.404;23.498;2023-06-24T01:29:36;99622.56;;;18.71;88.10
73594;BME280;64760;53.404;23.498;2023-06-24T01:32:31;99613.59;;;18.70;87.97
73594;BME280;64760;53.404;23.498;2023-06-24T01:35:01;99622.69;;;18.81;87.95
73594;BME280;64760;53.404;23.498;2023-06-24T01:37:37;99609.34;;;18.80;87.40
73594;BME280;64760;53.404;23.498;2023-06-24T01:40:11;99621.53;;;18.77;87.40
73594;BME280;64760;53.404;23.498;2023-06-24T01:42:41;99616.63;;;18.74;87.53
73594;BME280;64760;53.404;23.498;2023-06-24T01:45:12;99628.88;;;18.76;87.44
73594;BME280;64760;53.404;23.498;2023-06-24T01:47:40;99626.91;;;18.72;87.89
73594;BME280;64760;53.404;23.498;2023-06-24T01:50:11;99630.44;;;18.72;88.20
73594;BME280;64760;53.404;23.498;2023-06-24T01:52:41;99637.00;;;18.76;87.34
73594;BME280;64760;53.404;23.498;2023-06-24T01:55:11;99632.16;;;18.79;87.47
73594;BME280;64760;53.404;23.498;2023-06-24T01:57:40;99631.78;;;18.70;88.16
73594;BME280;64760;53.404;23.498;2023-06-24T02:00:09;99636.22;;;18.59;88.95
73594;BME280;64760;53.404;23.498;2023-06-24T02:02:49;99629.50;;;18.62;88.71
73594;BME280;64760;53.404;23.498;2023-06-24T02:05:17;99636.16;;;18.71;88.60
73594;BME280;64760;53.404;23.498;2023-06-24T02:07:46;99637.28;;;18.75;88.68
73594;BME280;64760;53.404;23.498;2023-06-24T02:10:15;99638.72;;;18.83;87.83
73594;BME280;64760;53.404;23.498;2023-06-24T02:12:45;99629.69;;;18.77;88.04
73594;BME280;64760;53.404;23.498;2023-06-24T02:15:13;99638.38;;;18.79;87.78
73594;BME280;64760;53.404;23.498;2023-06-24T02:17:39;99641.19;;;18.84;87.90
73594;BME280;64760;53.404;23.498;2023-06-24T02:20:07;99647.44;;;18.85;87.77
73594;BME280;64760;53.404;23.498;2023-06-24T02:22:37;99647.88;;;18.76;88.19
73594;BME280;64760;53.404;23.498;2023-06-24T02:25:06;99652.75;;;18.74;88.72
73594;BME280;64760;53.404;23.498;2023-06-24T02:27:35;99649.88;;;18.64;89.32
73594;BME280;64760;53.404;23.498;2023-06-24T02:30:04;99659.47;;;18.72;88.96
73594;BME280;64760;53.404;23.498;2023-06-24T02:32:30;99662.41;;;18.87;88.05
73594;BME280;64760;53.404;23.498;2023-06-24T02:34:57;99656.53;;;18.95;87.32
73594;BME280;64760;53.404;23.498;2023-06-24T02:37:25;99659.19;;;18.90;87.06
73594;BME280;64760;53.404;23.498;2023-06-24T02:39:51;99654.25;;;18.87;87.56
73594;BME280;64760;53.404;23.498;2023-06-24T02:42:17;99653.88;;;18.79;88.81
73594;BME280;64760;53.404;23.498;2023-06-24T02:44:44;99652.56;;;18.81;88.84
73594;BME280;64760;53.404;23.498;2023-06-24T02:47:12;99654.84;;;18.89;87.89
73594;BME280;64760;53.404;23.498;2023-06-24T02:49:42;99666.44;;;18.85;88.79
73594;BME280;64760;53.404;23.498;2023-06-24T02:52:13;99663.38;;;18.98;87.98
73594;BME280;64760;53.404;23.498;2023-06-24T02:54:40;99675.63;;;19.00;87.03
73594;BME280;64760;53.404;23.498;2023-06-24T02:57:29;99678.09;;;19.02;87.90
73594;BME280;64760;53.404;23.498;2023-06-24T03:00:15;99680.53;;;19.03;87.77
73594;BME280;64760;53.404;23.498;2023-06-24T03:03:08;99677.19;;;18.96;87.84
73594;BME280;64760;53.404;23.498;2023-06-24T03:05:38;99674.78;;;19.00;87.83
73594;BME280;64760;53.404;23.498;2023-06-24T03:08:05;99676.69;;;18.99;87.60
73594;BME280;64760;53.404;23.498;2023-06-24T03:10:36;99679.59;;;18.93;87.78
73594;BME280;64760;53.404;23.498;2023-06-24T03:13:03;99684.72;;;18.89;88.28
73594;BME280;64760;53.404;23.498;2023-06-24T03:15:41;99680.78;;;18.80;88.86
73594;BME280;64760;53.404;23.498;2023-06-24T03:18:07;99687.44;;;18.89;88.26
73594;BME280;64760;53.404;23.498;2023-06-24T03:20:34;99678.53;;;18.94;88.46
73594;BME280;64760;53.404;23.498;2023-06-24T03:23:07;99673.16;;;18.99;88.36
73594;BME280;64760;53.404;23.498;2023-06-24T03:25:35;99681.47;;;18.92;88.57
73594;BME280;64760;53.404;23.498;2023-06-24T03:28:01;99677.63;;;18.88;89.21
73594;BME280;64760;53.404;23.498;2023-06-24T03:30:31;99670.44;;;18.99;88.35
73594;BME280;64760;53.404;23.498;2023-06-24T03:32:57;99675.75;;;19.10;88.16
73594;BME280;64760;53.404;23.498;2023-06-24T03:35:24;99677.38;;;19.11;87.85
73594;BME280;64760;53.404;23.498;2023-06-24T03:37:54;99671.69;;;18.91;88.83
73594;BME280;64760;53.404;23.498;2023-06-24T03:40:20;99676.13;;;18.97;88.50
73594;BME280;64760;53.404;23.498;2023-06-24T03:42:46;99672.06;;;19.00;88.57
73594;BME280;64760;53.404;23.498;2023-06-24T03:45:13;99676.00;;;19.09;87.59
73594;BME280;64760;53.404;23.498;2023-06-24T03:47:39;99679.78;;;19.30;87.36
73594;BME280;64760;53.404;23.498;2023-06-24T03:50:06;99680.03;;;19.28;86.81
73594;BME280;64760;53.404;23.498;2023-06-24T03:52:32;99676.38;;;19.17;87.58
73594;BME280;64760;53.404;23.498;2023-06-24T03:54:59;99682.63;;;19.18;86.99
73594;BME280;64760;53.404;23.498;2023-06-24T03:57:25;99677.88;;;19.30;86.18
73594;BME280;64760;53.404;23.498;2023-06-24T03:59:51;99672.75;;;19.34;85.40
73594;BME280;64760;53.404;23.498;2023-06-24T04:02:17;99680.41;;;19.37;85.90
73594;BME280;64760;53.404;23.498;2023-06-24T04:04:44;99674.28;;;19.46;84.81
73594;BME280;64760;53.404;23.498;2023-06-24T04:07:10;99683.69;;;19.17;86.10
73594;BME280;64760;53.404;23.498;2023-06-24T04:09:38;99682.38;;;19.19;86.06
73594;BME280;64760;53.404;23.498;2023-06-24T04:12:05;99682.31;;;19.14;85.84
73594;BME280;64760;53.404;23.498;2023-06-24T04:14:34;99688.09;;;19.23;85.58
73594;BME280;64760;53.404;23.498;2023-06-24T04:17:00;99688.09;;;19.23;85.39
73594;BME280;64760;53.404;23.498;2023-06-24T04:19:29;99695.91;;;19.14;86.18
73594;BME280;64760;53.404;23.498;2023-06-24T04:21:55;99700.25;;;19.15;86.55
73594;BME280;64760;53.404;23.498;2023-06-24T04:24:21;99697.28;;;19.17;86.12
73594;BME280;64760;53.404;23.498;2023-06-24T04:26:48;99698.44;;;19.21;86.26
73594;BME280;64760;53.404;23.498;2023-06-24T04:29:14;99700.06;;;19.22;86.17
73594;BME280;64760;53.404;23.498;2023-06-24T04:31:40;99699.69;;;19.13;86.16
73594;BME280;64760;53.404;23.498;2023-06-24T04:34:06;99713.00;;;19.37;84.39
73594;BME280;64760;53.404;23.498;2023-06-24T04:36:32;99706.97;;;19.30;84.32
73594;BME280;64760;53.404;23.498;2023-06-24T04:38:59;99704.75;;;19.48;82.79
73594;BME280;64760;53.404;23.498;2023-06-24T04:41:25;99702.59;;;19.29;83.67
73594;BME280;64760;53.404;23.498;2023-06-24T04:43:51;99706.25;;;19.39;82.61
73594;BME280;64760;53.404;23.498;2023-06-24T04:46:18;99702.91;;;19.32;83.33
73594;BME280;64760;53.404;23.498;2023-06-24T04:48:44;99711.34;;;19.31;81.91
73594;BME280;64760;53.404;23.498;2023-06-24T04:51:10;99708.66;;;19.36;83.00
73594;BME280;64760;53.404;23.498;2023-06-24T04:53:37;99706.72;;;19.53;81.98
73594;BME280;64760;53.404;23.498;2023-06-24T04:56:04;99701.88;;;19.60;81.77
73594;BME280;64760;53.404;23.498;2023-06-24T04:58:31;99708.22;;;19.65;80.13
73594;BME280;64760;53.404;23.498;2023-06-24T05:00:57;99705.94;;;19.84;80.32
73594;BME280;64760;53.404;23.498;2023-06-24T05:03:25;99701.47;;;19.73;79.31
73594;BME280;64760;53.404;23.498;2023-06-24T05:05:51;99701.44;;;19.68;78.20
73594;BME280;64760;53.404;23.498;2023-06-24T05:08:17;99702.91;;;19.81;79.39
73594;BME280;64760;53.404;23.498;2023-06-24T05:10:43;99705.41;;;19.87;78.98
73594;BME280;64760;53.404;23.498;2023-06-24T05:13:10;99698.84;;;19.83;74.77
73594;BME280;64760;53.404;23.498;2023-06-24T05:15:36;99700.28;;;19.91;73.21
73594;BME280;64760;53.404;23.498;2023-06-24T05:18:02;99708.66;;;19.84;73.83
73594;BME280;64760;53.404;23.498;2023-06-24T05:20:28;99701.22;;;20.01;74.18
73594;BME280;64760;53.404;23.498;2023-06-24T05:22:54;99707.38;;;20.24;73.38
73594;BME280;64760;53.404;23.498;2023-06-24T05:25:20;99711.84;;;20.35;71.74
73594;BME280;64760;53.404;23.498;2023-06-24T05:27:47;99720.47;;;20.27;71.24
73594;BME280;64760;53.404;23.498;2023-06-24T05:30:13;99727.78;;;20.21;70.67
73594;BME280;64760;53.404;23.498;2023-06-24T05:32:40;99729.69;;;20.21;70.01
73594;BME280;64760;53.404;23.498;2023-06-24T05:35:07;99730.16;;;20.44;68.90
73594;BME280;64760;53.404;23.498;2023-06-24T05:37:33;99729.31;;;20.39;69.32
73594;BME280;64760;53.404;23.498;2023-06-24T05:40:01;99737.56;;;20.49;68.55
73594;BME280;64760;53.404;23.498;2023-06-24T05:42:28;99729.78;;;20.68;68.26
73594;BME280;64760;53.404;23.498;2023-06-24T05:44:54;99733.03;;;20.65;66.63
73594;BME280;64760;53.404;23.498;2023-06-24T05:47:20;99737.41;;;20.66;66.88
73594;BME280;64760;53.404;23.498;2023-06-24T05:49:46;99747.44;;;21.02;64.99
73594;BME280;64760;53.404;23.498;2023-06-24T05:52:12;99732.44;;;20.99;65.06
73594;BME280;64760;53.404;23.498;2023-06-24T05:54:38;99734.94;;;21.11;64.21
73594;BME280;64760;53.404;23.498;2023-06-24T05:57:05;99738.28;;;21.18;63.07
73594;BME280;64760;53.404;23.498;2023-06-24T05:59:33;99738.38;;;21.43;63.19
73594;BME280;64760;53.404;23.498;2023-06-24T06:01:59;99739.28;;;21.64;62.36
73594;BME280;64760;53.404;23.498;2023-06-24T06:04:28;99728.41;;;21.84;61.37
73594;BME280;64760;53.404;23.498;2023-06-24T06:06:54;99727.94;;;22.13;60.51
73594;BME280;64760;53.404;23.498;2023-06-24T06:09:21;99735.56;;;22.26;58.38
73594;BME280;64760;53.404;23.498;2023-06-24T06:11:47;99737.19;;;22.01;59.58
73594;BME280;64760;53.404;23.498;2023-06-24T06:14:14;99729.00;;;21.96;60.02
73594;BME280;64760;53.404;23.498;2023-06-24T06:16:40;99717.47;;;21.79;59.07
73594;BME280;64760;53.404;23.498;2023-06-24T06:19:06;99724.03;;;21.73;59.56
73594;BME280;64760;53.404;23.498;2023-06-24T06:21:32;99721.03;;;21.80;59.30
73594;BME280;64760;53.404;23.498;2023-06-24T06:23:59;99740.91;;;21.60;59.73
73594;BME280;64760;53.404;23.498;2023-06-24T06:26:25;99723.72;;;21.65;58.12
73594;BME280;64760;53.404;23.498;2023-06-24T06:28:52;99722.88;;;21.59;57.67
73594;BME280;64760;53.404;23.498;2023-06-24T06:31:19;99729.47;;;21.68;57.71
73594;BME280;64760;53.404;23.498;2023-06-24T06:33:47;99724.00;;;21.63;58.43
73594;BME280;64760;53.404;23.498;2023-06-24T06:36:13;99727.75;;;21.47;59.31
73594;BME280;64760;53.404;23.498;2023-06-24T06:38:40;99735.91;;;21.42;60.35
73594;BME280;64760;53.404;23.498;2023-06-24T06:41:07;99736.72;;;21.42;59.08
73594;BME280;64760;53.404;23.498;2023-06-24T06:43:33;99728.31;;;21.54;59.51
73594;BME280;64760;53.404;23.498;2023-06-24T06:46:00;99736.72;;;21.42;59.87
73594;BME280;64760;53.404;23.498;2023-06-24T06:48:26;99732.16;;;21.53;57.25
73594;BME280;64760;53.404;23.498;2023-06-24T06:50:52;99736.00;;;21.57;59.23
73594;BME280;64760;53.404;23.498;2023-06-24T06:53:19;99734.94;;;21.73;58.27
73594;BME280;64760;53.404;23.498;2023-06-24T06:55:45;99742.88;;;21.85;57.42
73594;BME280;64760;53.404;23.498;2023-06-24T06:58:11;99734.41;;;21.86;56.96
73594;BME280;64760;53.404;23.498;2023-06-24T07:00:37;99730.88;;;21.81;57.25
73594;BME280;64760;53.404;23.498;2023-06-24T07:03:04;99723.53;;;21.91;57.13
73594;BME280;64760;53.404;23.498;2023-06-24T07:05:30;99737.38;;;21.70;56.99
73594;BME280;64760;53.404;23.498;2023-06-24T07:07:56;99726.50;;;21.90;55.72
73594;BME280;64760;53.404;23.498;2023-06-24T07:10:22;99730.66;;;21.97;54.72
73594;BME280;64760;53.404;23.498;2023-06-24T07:12:49;99723.00;;;21.99;55.03
73594;BME280;64760;53.404;23.498;2023-06-24T07:15:15;99734.69;;;21.85;55.44
73594;BME280;64760;53.404;23.498;2023-06-24T07:17:42;99729.28;;;21.95;54.20
73594;BME280;64760;53.404;23.498;2023-06-24T07:20:08;99729.56;;;22.19;54.03
73594;BME280;64760;53.404;23.498;2023-06-24T07:22:35;99734.75;;;22.15;54.49
73594;BME280;64760;53.404;23.498;2023-06-24T07:25:01;99742.13;;;22.05;53.64
73594;BME280;64760;53.404;23.498;2023-06-24T07:27:27;99736.41;;;22.16;54.11
73594;BME280;64760;53.404;23.498;2023-06-24T07:29:53;99734.50;;;22.32;53.41
73594;BME280;64760;53.404;23.498;2023-06-24T07:32:19;99734.22;;;22.48;52.17
73594;BME280;64760;53.404;23.498;2023-06-24T07:34:46;99741.03;;;22.51;51.46
73594;BME280;64760;53.404;23.498;2023-06-24T07:37:12;99748.13;;;22.67;52.05
73594;BME280;64760;53.404;23.498;2023-06-24T07:39:38;99757.19;;;22.73;50.84
73594;BME280;64760;53.404;23.498;2023-06-24T07:42:04;99758.78;;;22.54;53.73
73594;BME280;64760;53.404;23.498;2023-06-24T07:44:31;99755.75;;;22.85;53.29
73594;BME280;64760;53.404;23.498;2023-06-24T07:46:57;99758.25;;;22.77;50.73
73594;BME280;64760;53.404;23.498;2023-06-24T07:49:24;99757.44;;;22.76;52.74
73594;BME280;64760;53.404;23.498;2023-06-24T07:51:50;99761.22;;;22.85;52.14
73594;BME280;64760;53.404;23.498;2023-06-24T07:54:16;99761.53;;;22.84;53.01
73594;BME280;64760;53.404;23.498;2023-06-24T07:56:42;99754.13;;;22.89;50.86
73594;BME280;64760;53.404;23.498;2023-06-24T07:59:09;99750.59;;;22.89;50.15
73594;BME280;64760;53.404;23.498;2023-06-24T08:01:35;99747.00;;;22.99;50.15
73594;BME280;64760;53.404;23.498;2023-06-24T08:04:01;99762.91;;;22.76;50.99
73594;BME280;64760;53.404;23.498;2023-06-24T08:06:29;99751.91;;;23.07;48.83
73594;BME280;64760;53.404;23.498;2023-06-24T08:08:55;99757.06;;;23.18;48.33
73594;BME280;64760;53.404;23.498;2023-06-24T08:11:21;99758.28;;;23.61;47.51
73594;BME280;64760;53.404;23.498;2023-06-24T08:13:47;99772.56;;;23.38;47.34
73594;BME280;64760;53.404;23.498;2023-06-24T08:16:18;99772.03;;;23.46;45.22
73594;BME280;64760;53.404;23.498;2023-06-24T08:18:46;99760.59;;;23.29;44.99
73594;BME280;64760;53.404;23.498;2023-06-24T08:21:12;99765.72;;;23.46;46.09
73594;BME280;64760;53.404;23.498;2023-06-24T08:23:39;99764.97;;;23.25;45.37
73594;BME280;64760;53.404;23.498;2023-06-24T08:26:05;99768.19;;;23.47;44.89
73594;BME280;64760;53.404;23.498;2023-06-24T08:28:31;99761.31;;;23.60;45.25
73594;BME280;64760;53.404;23.498;2023-06-24T08:30:57;99766.00;;;23.98;43.35
73594;BME280;64760;53.404;23.498;2023-06-24T08:33:23;99776.22;;;23.82;43.58
73594;BME280;64760;53.404;23.498;2023-06-24T08:35:49;99763.94;;;23.80;44.00
73594;BME280;64760;53.404;23.498;2023-06-24T08:38:16;99753.34;;;24.07;44.79
73594;BME280;64760;53.404;23.498;2023-06-24T08:40:42;99748.88;;;24.21;44.16
73594;BME280;64760;53.404;23.498;2023-06-24T08:43:10;99771.94;;;24.20;40.74
73594;BME280;64760;53.404;23.498;2023-06-24T08:45:36;99770.78;;;24.26;39.10
73594;BME280;64760;53.404;23.498;2023-06-24T08:48:03;99772.69;;;24.26;39.84
73594;BME280;64760;53.404;23.498;2023-06-24T08:50:35;99756.94;;;24.42;38.87
73594;BME280;64760;53.404;23.498;2023-06-24T08:53:05;99760.00;;;24.40;40.20
73594;BME280;64760;53.404;23.498;2023-06-24T08:55:39;99762.69;;;24.45;39.63
73594;BME280;64760;53.404;23.498;2023-06-24T08:58:07;99763.53;;;24.74;39.04
73594;BME280;64760;53.404;23.498;2023-06-24T09:00:33;99773.69;;;24.69;38.91
73594;BME280;64760;53.404;23.498;2023-06-24T09:03:00;99773.38;;;24.75;37.51
73594;BME280;64760;53.404;23.498;2023-06-24T09:05:26;99773.00;;;24.58;38.30
73594;BME280;64760;53.404;23.498;2023-06-24T09:07:52;99778.63;;;25.01;36.84
73594;BME280;64760;53.404;23.498;2023-06-24T09:10:35;99777.97;;;24.85;37.26
73594;BME280;64760;53.404;23.498;2023-06-24T09:13:04;99782.72;;;24.74;38.68
73594;BME280;64760;53.404;23.498;2023-06-24T09:15:37;99780.09;;;24.93;38.91
73594;BME280;64760;53.404;23.498;2023-06-24T09:18:05;99792.66;;;24.99;36.95
73594;BME280;64760;53.404;23.498;2023-06-24T09:20:31;99785.94;;;24.82;37.73
73594;BME280;64760;53.404;23.498;2023-06-24T09:23:02;99789.13;;;24.94;37.40
73594;BME280;64760;53.404;23.498;2023-06-24T09:25:29;99794.03;;;24.97;37.36
73594;BME280;64760;53.404;23.498;2023-06-24T09:27:58;99792.13;;;25.21;37.66
73594;BME280;64760;53.404;23.498;2023-06-24T09:30:24;99786.25;;;25.33;37.27
73594;BME280;64760;53.404;23.498;2023-06-24T09:32:52;99769.66;;;25.66;37.36
73594;BME280;64760;53.404;23.498;2023-06-24T09:35:20;99777.91;;;25.66;36.71
73594;BME280;64760;53.404;23.498;2023-06-24T09:37:55;99774.13;;;25.62;36.70
73594;BME280;64760;53.404;23.498;2023-06-24T09:40:21;99777.31;;;25.69;36.60
73594;BME280;64760;53.404;23.498;2023-06-24T09:45:26;99772.19;;;26.00;36.70
73594;BME280;64760;53.404;23.498;2023-06-24T09:47:54;99778.44;;;25.87;36.50
73594;BME280;64760;53.404;23.498;2023-06-24T09:50:21;99780.25;;;26.34;36.77
73594;BME280;64760;53.404;23.498;2023-06-24T09:52:48;99783.69;;;26.58;36.27
73594;BME280;64760;53.404;23.498;2023-06-24T09:55:16;99780.84;;;26.96;35.88
73594;BME280;64760;53.404;23.498;2023-06-24T09:57:48;99774.34;;;27.05;35.34
73594;BME280;64760;53.404;23.498;2023-06-24T10:00:18;99774.97;;;27.16;35.59
73594;BME280;64760;53.404;23.498;2023-06-24T10:02:45;99781.09;;;26.81;36.47
73594;BME280;64760;53.404;23.498;2023-06-24T10:05:15;99780.75;;;26.69;36.13
73594;BME280;64760;53.404;23.498;2023-06-24T10:07:42;99777.66;;;26.75;36.76
73594;BME280;64760;53.404;23.498;2023-06-24T10:10:09;99781.09;;;26.81;36.08
73594;BME280;64760;53.404;23.498;2023-06-24T10:12:35;99779.13;;;26.68;35.67
73594;BME280;64760;53.404;23.498;2023-06-24T10:15:02;99787.28;;;26.40;36.82
73594;BME280;64760;53.404;23.498;2023-06-24T10:17:31;99781.44;;;26.28;36.35
73594;BME280;64760;53.404;23.498;2023-06-24T10:19:57;99789.47;;;26.43;35.74
73594;BME280;64760;53.404;23.498;2023-06-24T10:22:24;99776.75;;;26.47;37.44
73594;BME280;64760;53.404;23.498;2023-06-24T10:24:52;99785.66;;;26.90;37.19
73594;BME280;64760;53.404;23.498;2023-06-24T10:27:21;99777.06;;;26.92;37.40
73594;BME280;64760;53.404;23.498;2023-06-24T10:29:49;99786.31;;;26.82;36.99
73594;BME280;64760;53.404;23.498;2023-06-24T10:32:18;99786.22;;;26.87;37.00
73594;BME280;64760;53.404;23.498;2023-06-24T10:34:46;99784.53;;;26.73;37.07
73594;BME280;64760;53.404;23.498;2023-06-24T10:42:32;99787.13;;;26.50;38.25
73594;BME280;64760;53.404;23.498;2023-06-24T10:50:05;99781.63;;;26.50;38.72
73594;BME280;64760;53.404;23.498;2023-06-24T10:52:33;99775.22;;;26.87;37.89
73594;BME280;64760;53.404;23.498;2023-06-24T10:55:03;99767.31;;;27.13;37.59
73594;BME280;64760;53.404;23.498;2023-06-24T10:57:29;99778.63;;;26.98;38.20
73594;BME280;64760;53.404;23.498;2023-06-24T10:59:57;99776.69;;;26.98;39.00
73594;BME280;64760;53.404;23.498;2023-06-24T11:02:25;99776.19;;;27.24;38.01
73594;BME280;64760;53.404;23.498;2023-06-24T11:04:56;99775.47;;;26.91;38.32
73594;BME280;64760;53.404;23.498;2023-06-24T11:07:24;99783.94;;;26.06;39.52
73594;BME280;64760;53.404;23.498;2023-06-24T11:09:54;99778.53;;;26.38;39.34
73594;BME280;64760;53.404;23.498;2023-06-24T11:12:32;99778.63;;;26.66;37.78
73594;BME280;64760;53.404;23.498;2023-06-24T11:15:00;99780.28;;;26.48;38.51
73594;BME280;64760;53.404;23.498;2023-06-24T11:17:27;99775.53;;;26.53;37.46
73594;BME280;64760;53.404;23.498;2023-06-24T11:19:55;99767.28;;;26.53;36.54
73594;BME280;64760;53.404;23.498;2023-06-24T11:22:23;99758.97;;;26.91;37.97
73594;BME280;64760;53.404;23.498;2023-06-24T11:24:49;99768.13;;;26.68;38.10
73594;BME280;64760;53.404;23.498;2023-06-24T11:27:16;99771.88;;;26.58;37.39
73594;BME280;64760;53.404;23.498;2023-06-24T11:29:44;99767.97;;;26.45;35.76
73594;BME280;64760;53.404;23.498;2023-06-24T11:32:11;99766.25;;;26.49;36.31
73594;BME280;64760;53.404;23.498;2023-06-24T11:34:37;99772.50;;;26.36;36.66
73594;BME280;64760;53.404;23.498;2023-06-24T11:37:31;99779.94;;;26.36;35.86
73594;BME280;64760;53.404;23.498;2023-06-24T11:40:08;99766.66;;;26.24;36.28
73594;BME280;64760;53.404;23.498;2023-06-24T11:42:39;99771.97;;;25.97;37.47
73594;BME280;64760;53.404;23.498;2023-06-24T11:45:07;99776.34;;;26.16;38.05
73594;BME280;64760;53.404;23.498;2023-06-24T11:47:35;99769.50;;;26.19;37.45
73594;BME280;64760;53.404;23.498;2023-06-24T11:50:03;99768.56;;;26.05;37.58
73594;BME280;64760;53.404;23.498;2023-06-24T11:52:47;99771.25;;;26.10;37.69
73594;BME280;64760;53.404;23.498;2023-06-24T11:55:19;99761.75;;;26.21;37.59
73594;BME280;64760;53.404;23.498;2023-06-24T12:00:14;99766.06;;;26.27;38.69
73594;BME280;64760;53.404;23.498;2023-06-24T12:02:41;99767.25;;;26.21;38.12
73594;BME280;64760;53.404;23.498;2023-06-24T12:05:07;99769.06;;;26.44;38.59
73594;BME280;64760;53.404;23.498;2023-06-24T12:07:34;99756.97;;;26.45;38.27
73594;BME280;64760;53.404;23.498;2023-06-24T12:10:00;99763.97;;;26.38;38.37
73594;BME280;64760;53.404;23.498;2023-06-24T12:12:27;99771.69;;;25.98;40.00
73594;BME280;64760;53.404;23.498;2023-06-24T12:14:53;99771.22;;;25.73;41.98
73594;BME280;64760;53.404;23.498;2023-06-24T12:17:20;99775.38;;;25.46;41.67
73594;BME280;64760;53.404;23.498;2023-06-24T12:19:46;99775.66;;;25.45;41.40
73594;BME280;64760;53.404;23.498;2023-06-24T12:22:13;99779.53;;;25.44;41.69
73594;BME280;64760;53.404;23.498;2023-06-24T12:24:39;99770.78;;;25.65;40.94
73594;BME280;64760;53.404;23.498;2023-06-24T12:27:06;99774.28;;;25.47;40.76
73594;BME280;64760;53.404;23.498;2023-06-24T12:29:32;99777.19;;;25.32;41.82
73594;BME280;64760;53.404;23.498;2023-06-24T12:31:58;99773.94;;;25.54;41.60
73594;BME280;64760;53.404;23.498;2023-06-24T12:34:25;99778.34;;;25.55;41.16
73594;BME280;64760;53.404;23.498;2023-06-24T12:36:51;99774.78;;;25.73;39.91
73594;BME280;64760;53.404;23.498;2023-06-24T12:39:17;99785.03;;;25.67;40.26
73594;BME280;64760;53.404;23.498;2023-06-24T12:41:44;99777.31;;;25.46;40.41
73594;BME280;64760;53.404;23.498;2023-06-24T12:44:10;99789.59;;;25.53;40.50
73594;BME280;64760;53.404;23.498;2023-06-24T12:46:36;99786.38;;;25.70;39.68
73594;BME280;64760;53.404;23.498;2023-06-24T12:49:03;99785.94;;;25.82;39.12
73594;BME280;64760;53.404;23.498;2023-06-24T12:51:30;99777.53;;;25.73;38.25
73594;BME280;64760;53.404;23.498;2023-06-24T12:53:56;99783.34;;;25.72;38.46
73594;BME280;64760;53.404;23.498;2023-06-24T12:56:22;99780.94;;;25.41;38.42
73594;BME280;64760;53.404;23.498;2023-06-24T12:58:48;99789.81;;;25.33;38.02
73594;BME280;64760;53.404;23.498;2023-06-24T13:01:15;99791.81;;;25.51;38.54
73594;BME280;64760;53.404;23.498;2023-06-24T13:03:42;99793.19;;;25.73;38.00
73594;BME280;64760;53.404;23.498;2023-06-24T13:06:09;99800.91;;;25.70;37.76
73594;BME280;64760;53.404;23.498;2023-06-24T13:08:35;99798.94;;;25.95;37.55
73594;BME280;64760;53.404;23.498;2023-06-24T13:11:01;99802.84;;;25.89;38.20
73594;BME280;64760;53.404;23.498;2023-06-24T13:13:28;99808.28;;;25.94;38.48
73594;BME280;64760;53.404;23.498;2023-06-24T13:15:54;99805.09;;;25.87;38.77